Terminal Aerodrome Forecast
Issued by NWS Shreveport, LA

Home | Current Version | Previous Version | Text Only | Print | Product List | Glossary On
Versions: 1 2 3 4 5 6 7 8 9 10 11 12 13 14 15 16 17 18 19 20 21
000
FTUS44 KSHV 300221 AAA
TAFMLU
TAF AMD
KMLU 300221Z 3002/3024 22014KT 6SM -SHRA BR BKN040 OVC070
      TEMPO 3002/3003 3SM +TSRA OVC030CB
     FM300400 20005KT P6SM SCT040 BKN070
     FM301000 20005KT 4SM BR BKN015
     FM301500 24010KT P6SM BKN025
     FM301800 27008KT P6SM VCTS BKN040CB=

USA.gov is the U.S. government's official web portal to all federal, state and local government web resources and services.